createdAt,value
2023-05-17T00:01:52.825Z,2.60
2023-05-17T00:06:51.385Z,2.93
2023-05-17T00:11:49.898Z,2.47
2023-05-17T00:16:49.760Z,2.73
2023-05-17T00:21:48.347Z,2.60
2023-05-17T00:26:46.859Z,2.73
2023-05-17T00:31:45.382Z,3.80
2023-05-17T00:36:45.235Z,3.43
2023-05-17T00:41:44.136Z,2.40
2023-05-17T00:46:43.095Z,2.70
2023-05-17T00:51:42.274Z,3.80
2023-05-17T00:56:43.727Z,2.53
2023-05-17T01:01:44.096Z,2.83
2023-05-17T01:06:44.266Z,2.77
2023-05-17T01:11:55.394Z,3.07
2023-05-17T01:16:59.506Z,2.70
2023-05-17T01:22:10.319Z,3.40
2023-05-17T01:27:11.974Z,2.80
2023-05-17T01:32:11.720Z,3.37
2023-05-17T01:37:10.067Z,2.57
2023-05-17T01:42:22.622Z,2.60
2023-05-17T01:47:28.841Z,2.70
2023-05-17T01:52:33.387Z,3.17
2023-05-17T01:57:36.392Z,2.40
2023-05-17T02:02:34.829Z,2.77
2023-05-17T02:07:33.452Z,4.00
2023-05-17T02:12:33.929Z,2.60
2023-05-17T02:17:33.370Z,2.93
2023-05-17T02:22:31.780Z,3.20
2023-05-17T02:27:30.261Z,3.20
2023-05-17T02:32:30.149Z,3.20
2023-05-17T02:37:28.634Z,2.97
2023-05-17T02:42:27.077Z,2.77
2023-05-17T02:47:27.656Z,5.03
2023-05-17T02:52:27.554Z,3.43
2023-05-17T02:57:26.189Z,2.73
2023-05-17T03:02:25.804Z,1.87
2023-05-17T03:07:26.260Z,1.90
2023-05-17T03:12:25.033Z,2.03
2023-05-17T03:17:25.065Z,2.90
2023-05-17T03:22:23.822Z,2.27
2023-05-17T03:27:23.702Z,3.03
2023-05-17T03:32:22.181Z,2.60
2023-05-17T03:37:20.491Z,2.37
2023-05-17T03:42:20.258Z,2.20
2023-05-17T03:47:24.155Z,3.03
2023-05-17T03:52:23.182Z,2.10
2023-05-17T03:57:22.692Z,2.10
2023-05-17T04:02:22.897Z,1.83
2023-05-17T04:07:21.163Z,2.07
2023-05-17T04:12:19.789Z,1.73
2023-05-17T04:17:19.630Z,2.30
2023-05-17T04:22:22.237Z,1.63
2023-05-17T04:27:22.229Z,1.70
2023-05-17T04:32:21.752Z,2.20
2023-05-17T04:37:21.898Z,2.23
2023-05-17T04:42:24.103Z,1.80
2023-05-17T04:47:27.584Z,1.70
2023-05-17T04:52:27.641Z,1.97
2023-05-17T04:57:26.566Z,2.40
2023-05-17T05:02:29.489Z,1.90
2023-05-17T05:14:24.935Z,2.77
2023-05-17T05:19:23.419Z,2.53
2023-05-17T05:24:24.681Z,2.03
2023-05-17T05:29:26.078Z,2.80
2023-05-17T05:34:25.325Z,1.83
2023-05-17T05:39:24.009Z,2.20
2023-05-17T05:44:23.949Z,2.17
2023-05-17T05:49:28.126Z,2.03
2023-05-17T05:54:27.005Z,1.10
2023-05-17T05:59:25.607Z,1.10
2023-05-17T06:04:33.055Z,2.20
2023-05-17T06:09:40.723Z,2.57
2023-05-17T06:14:38.911Z,1.60
2023-05-17T06:19:38.145Z,1.93
2023-05-17T06:24:36.864Z,2.20
2023-05-17T06:29:36.765Z,1.50
2023-05-17T06:34:35.367Z,1.80
2023-05-17T06:39:33.575Z,2.30
2023-05-17T06:44:32.408Z,2.13
2023-05-17T06:49:32.016Z,1.50
2023-05-17T06:54:30.867Z,1.20
2023-05-17T06:59:29.670Z,1.20
2023-05-17T07:04:27.977Z,2.13
2023-05-17T07:09:28.362Z,1.10
2023-05-17T07:14:26.905Z,1.60
2023-05-17T07:19:26.967Z,1.87
2023-05-17T07:24:25.703Z,0.90
2023-05-17T07:29:26.610Z,2.30
2023-05-17T07:34:24.805Z,2.23
2023-05-17T07:39:23.711Z,1.50
2023-05-17T07:44:22.313Z,1.50
2023-05-17T07:49:22.381Z,1.50
2023-05-17T07:54:25.301Z,2.10
2023-05-17T07:59:23.809Z,1.40
2023-05-17T08:04:24.320Z,1.10
2023-05-17T08:09:23.071Z,0.97
2023-05-17T08:14:25.303Z,1.97
2023-05-17T08:19:25.277Z,1.43
2023-05-17T08:24:26.135Z,1.53
2023-05-17T08:29:24.949Z,1.80
2023-05-17T08:34:24.914Z,1.40
2023-05-17T08:39:23.260Z,1.83
2023-05-17T08:44:23.623Z,1.50
2023-05-17T08:49:26.152Z,1.30
2023-05-17T08:54:24.770Z,1.77
2023-05-17T08:59:24.327Z,1.17
2023-05-17T09:04:25.149Z,1.10
2023-05-17T09:09:24.057Z,1.87
2023-05-17T09:14:22.249Z,1.63
2023-05-17T09:19:21.493Z,1.40
2023-05-17T09:24:29.399Z,1.50
2023-05-17T09:29:27.939Z,1.60
2023-05-17T09:34:26.528Z,1.87
2023-05-17T09:39:27.358Z,2.33
2023-05-17T09:44:26.871Z,1.33
2023-05-17T09:49:28.650Z,1.30
2023-05-17T09:54:33.625Z,1.47
2023-05-17T09:59:31.846Z,1.50
2023-05-17T10:04:32.224Z,1.30
2023-05-17T10:09:36.921Z,1.87
2023-05-17T10:14:37.471Z,1.63
2023-05-17T10:19:36.498Z,1.63
2023-05-17T10:24:37.505Z,1.20
2023-05-17T10:29:36.469Z,1.20
2023-05-17T10:34:37.281Z,1.10
2023-05-17T10:39:39.186Z,1.77
2023-05-17T10:44:37.966Z,1.07
2023-05-17T10:49:39.847Z,1.50
2023-05-17T10:54:42.458Z,1.40
2023-05-17T10:59:58.378Z,1.30
2023-05-17T11:04:58.190Z,1.30
2023-05-17T11:10:07.575Z,2.00
2023-05-17T11:15:10.909Z,1.40
2023-05-17T11:20:13.793Z,1.30
2023-05-17T11:25:15.177Z,2.07
2023-05-17T11:30:23.091Z,1.63
2023-05-17T11:35:25.608Z,1.50
2023-05-17T11:40:29.036Z,1.73
2023-05-17T11:45:28.084Z,2.67
2023-05-17T11:50:28.062Z,1.93
2023-05-17T11:55:28.331Z,1.40
2023-05-17T12:00:28.759Z,1.77
2023-05-17T12:05:28.161Z,1.90
2023-05-17T12:10:34.583Z,1.43
2023-05-17T12:15:34.075Z,1.30
2023-05-17T12:20:33.399Z,1.40
2023-05-17T12:25:34.039Z,1.30
2023-05-17T12:30:32.701Z,1.50
2023-05-17T12:35:31.273Z,1.30
2023-05-17T12:40:30.453Z,0.80
2023-05-17T12:45:30.533Z,0.80
2023-05-17T12:50:31.839Z,1.03
2023-05-17T12:55:38.235Z,1.17
2023-05-17T13:00:37.791Z,1.37
2023-05-17T13:05:36.868Z,1.90
2023-05-17T13:10:35.554Z,1.20
2023-05-17T13:15:35.151Z,1.50
2023-05-17T13:20:35.015Z,2.83
2023-05-17T13:25:33.585Z,1.83
2023-05-17T13:30:32.225Z,1.30
2023-05-17T13:35:30.641Z,1.30
2023-05-17T13:40:30.804Z,1.63
2023-05-17T13:45:30.444Z,1.40
2023-05-17T13:50:29.586Z,1.47
2023-05-17T13:55:29.783Z,1.73
2023-05-17T14:00:28.179Z,2.13
2023-05-17T14:05:27.676Z,1.47
2023-05-17T14:10:26.495Z,1.43
2023-05-17T14:15:27.812Z,1.60
2023-05-17T14:20:26.462Z,0.60
2023-05-17T14:25:24.950Z,0.83
2023-05-17T14:30:25.314Z,1.70
2023-05-17T14:35:23.955Z,1.20
2023-05-17T14:40:22.759Z,1.83
2023-05-17T14:45:20.976Z,1.23
2023-05-17T14:50:21.029Z,1.50
2023-05-17T14:55:20.392Z,1.33
2023-05-17T15:00:19.495Z,1.43
2023-05-17T15:05:18.409Z,1.10
2023-05-17T15:10:18.423Z,1.50
2023-05-17T15:15:16.647Z,1.60
2023-05-17T15:20:15.976Z,1.90
2023-05-17T15:25:14.865Z,1.70
2023-05-17T15:30:16.113Z,2.20
2023-05-17T15:35:14.698Z,1.83
2023-05-17T15:40:14.139Z,1.63
2023-05-17T15:45:14.368Z,2.00
2023-05-17T15:50:12.788Z,2.43
2023-05-17T15:55:12.636Z,1.93
2023-05-17T16:00:12.388Z,2.17
2023-05-17T16:05:12.330Z,2.00
2023-05-17T16:10:11.307Z,1.30
2023-05-17T16:15:10.765Z,1.80
2023-05-17T16:20:12.506Z,1.67
2023-05-17T16:25:11.185Z,1.37
2023-05-17T16:30:09.962Z,1.57
2023-05-17T16:35:09.863Z,2.33
2023-05-17T16:40:11.060Z,1.73
2023-05-17T16:45:10.895Z,1.90
2023-05-17T16:50:11.025Z,1.80
2023-05-17T16:55:12.043Z,1.80
2023-05-17T17:00:12.344Z,2.10
2023-05-17T17:05:11.260Z,1.57
2023-05-17T17:10:12.309Z,1.87
2023-05-17T17:15:11.583Z,1.57
2023-05-17T17:20:11.599Z,1.30
2023-05-17T17:25:12.024Z,1.77
2023-05-17T17:30:10.997Z,1.40
2023-05-17T17:35:10.861Z,1.30
2023-05-17T17:40:13.011Z,1.40
2023-05-17T17:45:12.089Z,1.77
2023-05-17T17:50:10.935Z,1.50
2023-05-17T17:55:13.380Z,1.30
2023-05-17T18:00:13.389Z,1.47
2023-05-17T18:05:12.932Z,1.50
2023-05-17T18:10:13.365Z,1.30
2023-05-17T18:15:12.778Z,1.77
2023-05-17T18:20:11.681Z,2.00
2023-05-17T18:25:10.907Z,2.37
2023-05-17T18:30:12.437Z,1.40
2023-05-17T18:35:11.486Z,1.57
2023-05-17T18:40:10.778Z,1.27
2023-05-17T18:45:11.923Z,1.53
2023-05-17T18:50:10.352Z,1.37
2023-05-17T18:55:09.375Z,1.50
2023-05-17T19:00:11.076Z,1.80
2023-05-17T19:05:09.768Z,2.00
2023-05-17T19:10:09.638Z,2.30
2023-05-17T19:15:09.819Z,2.00
2023-05-17T19:20:11.278Z,2.00
2023-05-17T19:25:10.371Z,2.23
2023-05-17T19:30:10.015Z,2.37
2023-05-17T19:35:11.836Z,2.00
2023-05-17T19:40:11.301Z,1.83
2023-05-17T19:45:11.605Z,2.00
2023-05-17T19:50:12.800Z,2.10
2023-05-17T19:55:13.219Z,1.77
2023-05-17T20:00:12.954Z,2.07
2023-05-17T20:05:12.862Z,1.60
2023-05-17T20:10:12.090Z,2.20
2023-05-17T20:15:11.450Z,1.73
2023-05-17T20:20:10.870Z,1.97
2023-05-17T20:25:10.966Z,1.73
2023-05-17T20:30:10.729Z,1.47
2023-05-17T20:35:09.793Z,1.30
2023-05-17T20:40:11.120Z,2.00
2023-05-17T20:45:10.705Z,2.10
2023-05-17T20:50:14.397Z,1.33
2023-05-17T20:55:14.288Z,2.00
2023-05-17T21:00:17.126Z,1.60
2023-05-17T21:05:16.487Z,2.40
2023-05-17T21:10:18.193Z,1.70
2023-05-17T21:15:18.594Z,1.80
2023-05-17T21:20:17.194Z,1.80
2023-05-17T21:25:17.167Z,2.13
2023-05-17T21:30:15.758Z,2.33
2023-05-17T21:35:14.317Z,2.27
2023-05-17T21:40:13.090Z,3.77
2023-05-17T21:45:15.001Z,2.73
2023-05-17T21:50:13.585Z,2.90
2023-05-17T21:55:11.803Z,2.47
2023-05-17T22:00:15.572Z,2.03
2023-05-17T22:05:14.576Z,1.67
2023-05-17T22:10:13.812Z,3.40
2023-05-17T22:15:13.844Z,2.20
2023-05-17T22:20:13.071Z,2.37
2023-05-17T22:25:11.800Z,2.77
2023-05-17T22:30:10.537Z,2.93
2023-05-17T22:35:10.952Z,2.60
2023-05-17T22:40:11.187Z,2.57
2023-05-17T22:45:10.468Z,2.27
2023-05-17T22:50:12.022Z,2.60
2023-05-17T22:55:11.283Z,2.70
2023-05-17T23:00:11.883Z,2.40
2023-05-17T23:05:13.386Z,1.80
2023-05-17T23:10:12.616Z,1.77
2023-05-17T23:15:12.088Z,1.90
2023-05-17T23:20:13.310Z,1.80
2023-05-17T23:25:12.004Z,1.60
2023-05-17T23:30:11.272Z,1.90
2023-05-17T23:35:11.611Z,1.97
2023-05-17T23:40:11.178Z,2.33
2023-05-17T23:45:10.783Z,2.67
2023-05-17T23:50:10.783Z,3.50
2023-05-17T23:55:12.439Z,2.60
